Latest Weather Observations for Whyalla

IDS60801

Issued at 11:05 pm CST Tuesday 2 September 2014 (issued every 30 minutes, with the page automatically refreshed every 10 minutes)

About weather observations | Map of weather stations | Latest weather observations for SA | Other Formats
Station Details ID: 018120 Name: WHYALLA AERO Lat: -33.05 Lon: 137.52 Height: 6.5 m
Data from the previous 72 hours. | See also: Recent months at Whyalla
Date/Time
CST
Temp
°C
App
Temp
°C
Dew
Point
Rel
Hum
%
Delta-T
°C
Wind Press
QNH
hPa
Press
MSL
hPa
Rain
since 9 am
mm
Dir
 
Spd
km/h
Gust
km/h
Spd
kts
Gust
kts
02/11:00pm 7.6 5.1 6.4 92 0.5 SW 9 11 5 6 1026.3 1026.3 0.0
02/10:30pm 7.9 5.4 6.7 92 0.5 SW 9 13 5 7 1026.7 1026.7 0.0
02/10:00pm 8.6 6.7 6.9 89 0.8 SW 6 7 3 4 1026.9 1026.9 0.0
02/09:30pm 9.4 6.3 7.3 87 1.0 SSW 13 15 7 8 1026.9 1026.9 0.0
02/09:00pm 9.6 6.9 7.2 85 1.1 SW 11 13 6 7 1027.0 1027.0 0.0
02/08:30pm 10.0 7.4 7.6 85 1.1 SW 11 15 6 8 1027.0 1027.0 0.0
02/08:00pm 10.6 7.7 8.0 84 1.3 SSW 13 15 7 8 1026.6 1026.6 0.0
02/07:30pm 11.5 7.9 8.2 80 1.6 S 17 24 9 13 1026.4 1026.4 0.0
02/07:00pm 11.7 7.6 8.0 78 1.8 S 19 22 10 12 1026.3 1026.3 0.0
02/06:30pm 11.8 8.0 7.7 76 2.0 S 17 22 9 12 1026.0 1026.0 0.0
02/06:00pm 12.3 8.2 7.8 74 2.2 S 19 24 10 13 1025.8 1025.8 0.0
02/05:30pm 13.1 8.8 8.0 71 2.5 S 20 28 11 15 1025.7 1025.7 0.0
02/05:00pm 13.6 8.4 7.4 66 3.0 S 24 33 13 18 1025.5 1025.5 0.0
02/04:30pm 14.0 9.0 6.4 60 3.6 S 22 28 12 15 1025.4 1025.4 0.0
02/04:00pm 14.5 9.0 5.8 56 4.1 S 24 30 13 16 1025.3 1025.3 0.0
02/03:30pm 14.6 8.8 6.4 58 3.9 S 26 33 14 18 1025.2 1025.2 0.0
02/03:00pm 14.7 9.3 6.3 57 4.0 S 24 33 13 18 1025.2 1025.2 0.0
02/02:30pm 14.3 9.0 6.9 61 3.6 S 24 32 13 17 1025.2 1025.2 0.0
02/02:00pm 14.5 9.4 7.5 63 3.5 S 24 35 13 19 1025.3 1025.3 0.0
02/01:30pm 14.5 9.0 5.8 56 4.1 S 24 32 13 17 1025.5 1025.5 0.0
02/01:00pm 14.3 8.9 6.4 59 3.8 S 24 35 13 19 1025.7 1025.7 0.0
02/12:30pm 14.3 9.0 6.6 60 3.7 S 24 32 13 17 1025.7 1025.7 0.0
02/12:00pm 13.9 8.9 6.3 60 3.6 S 22 30 12 16 1026.1 1026.1 0.0
02/11:30am 13.9 8.7 5.5 57 3.9 S 22 33 12 18 1026.4 1026.4 0.0
02/11:00am 13.8 8.5 6.9 63 3.3 S 24 32 13 17 1026.6 1026.6 0.0
02/10:30am 13.5 8.6 7.1 65 3.1 SSE 22 30 12 16 1026.3 1026.3 0.0
02/10:00am 13.0 8.9 8.5 74 2.2 S 20 26 11 14 1026.3 1026.3 0.0
02/09:30am 12.2 7.7 8.7 79 1.7 SSW 22 32 12 17 1026.3 1026.3 0.0
02/09:00am 11.5 7.4 8.5 82 1.5 SW 20 32 11 17 1026.1 1026.1 7.2
02/08:30am 10.0 6.0 8.4 90 0.8 SW 19 32 10 17 1026.1 1026.1 7.2
02/08:00am 9.0 5.2 7.6 91 0.7 WSW 17 24 9 13 1025.9 1025.9 7.2
02/07:30am 8.7 4.5 7.3 91 0.7 SW 19 26 10 14 1025.8 1025.8 7.0
02/07:00am 7.8 4.9 6.6 92 0.6 SW 11 15 6 8 1025.3 1025.3 7.0
02/06:30am 7.3 4.7 6.1 92 0.5 SW 9 13 5 7 1025.0 1025.0 7.0
02/06:00am 7.4 3.6 5.9 90 0.7 W 15 22 8 12 1024.7 1024.7 7.0
02/05:30am 7.3 4.6 5.8 90 0.7 WSW 9 13 5 7 1024.4 1024.4 7.0
02/05:00am 7.2 4.1 5.5 89 0.8 W 11 15 6 8 1024.0 1024.0 7.0
02/04:30am 7.7 3.8 5.5 86 1.0 WSW 15 19 8 10 1023.5 1023.5 7.0
02/04:00am 7.2 4.1 5.5 89 0.8 W 11 15 6 8 1023.3 1023.3 7.0
02/03:30am 6.7 3.8 4.9 88 0.8 W 9 13 5 7 1022.9 1022.9 7.0
02/03:00am 7.0 3.7 4.8 86 1.0 WSW 11 15 6 8 1023.0 1023.0 7.0
02/02:30am 6.4 3.4 4.2 86 0.9 W 9 13 5 7 1023.0 1023.0 7.0
02/02:00am 7.6 4.3 4.7 82 1.3 S 11 13 6 7 1023.0 1023.0 7.0
02/01:30am 7.7 4.1 4.8 82 1.3 WSW 13 17 7 9 1022.7 1022.7 7.0
02/01:00am 7.7 3.7 4.7 81 1.3 W 15 20 8 11 1022.5 1022.5 7.0
02/12:30am 7.5 3.5 4.8 83 1.2 WSW 15 19 8 10 1022.6 1022.6 7.0
02/12:00am 7.6 3.6 5.1 84 1.1 W 15 20 8 11 1022.5 1022.5 7.0
 
Date/Time
CST
Temp
°C
App
Temp
°C
Dew
Point
Rel
Hum
%
Delta-T
°C
Wind Press
QNH
hPa
Press
MSL
hPa
Rain
since 9 am
mm
Dir
 
Spd
km/h
Gust
km/h
Spd
kts
Gust
kts
01/11:30pm 7.8 4.0 5.8 87 0.9 W 15 19 8 10 1022.7 1022.7 7.0
01/11:00pm 7.3 3.8 5.4 88 0.8 W 13 15 7 8 1022.3 1022.3 7.0
01/10:30pm 8.3 4.9 5.8 84 1.1 WSW 13 19 7 10 1022.2 1022.2 7.0
01/10:00pm 8.8 5.4 5.7 81 1.4 WSW 13 17 7 9 1021.9 1021.9 7.0
01/09:30pm 9.3 5.5 5.9 79 1.5 WSW 15 20 8 11 1021.4 1021.4 7.0
01/09:00pm 9.0 5.6 6.1 82 1.3 WSW 13 19 7 10 1021.1 1021.1 7.0
01/08:30pm 9.2 6.5 7.5 89 0.8 W 11 13 6 7 1020.7 1020.7 7.0
01/08:00pm 10.2 6.3 6.9 80 1.6 SW 17 24 9 13 1020.2 1020.2 7.0
01/07:30pm 10.3 7.7 7.9 85 1.2 WSW 11 13 6 7 1020.0 1020.0 7.0
01/07:00pm 11.5 7.2 7.8 78 1.8 SW 20 30 11 16 1019.2 1019.2 7.0
01/06:30pm 11.4 7.1 7.7 78 1.8 SW 20 32 11 17 1018.5 1018.5 7.0
01/06:00pm 11.4 6.6 8.8 84 1.3 SSW 24 28 13 15 1017.8 1017.8 7.0
01/05:30pm 12.5 8.8 10.2 86 1.2 S 20 28 11 15 1017.4 1017.4 6.6
01/05:00pm 13.2 9.8 10.7 85 1.3 S 19 22 10 12 1017.0 1017.0 6.6
01/04:30pm 12.4 10.6 10.8 90 0.8 SE 11 17 6 9 1016.6 1016.6 6.6
01/04:13pm 12.3 10.8 10.5 89 0.9 SE 9 13 5 7 1016.4 1016.4 6.6
01/04:00pm 12.0 9.7 10.4 90 0.8 SSE 13 24 7 13 1016.4 1016.4 6.6
01/03:57pm 12.3 10.5 10.7 90 0.8 S 11 24 6 13 1016.5 1016.5 6.4
01/03:46pm 12.4 11.0 10.8 90 0.8 SSE 9 17 5 9 1016.1 1016.1 5.6
01/03:30pm 12.5 9.1 10.4 87 1.1 SSE 19 32 10 17 1015.7 1015.7 4.8
01/03:27pm 12.7 8.6 10.1 84 1.3 S 22 32 12 17 1015.6 1015.6 4.6
01/03:00pm 12.9 11.4 10.6 86 1.2 SSE 9 13 5 7 1015.3 1015.3 3.8
01/02:57pm 12.7 11.3 10.9 89 0.9 SSE 9 13 5 7 1015.4 1015.4 3.8
01/02:37pm 12.0 8.0 9.2 83 1.4 S 20 39 11 21 1015.7 1015.7 3.2
01/02:30pm 13.3 10.0 9.7 79 1.8 S 17 22 9 12 1015.6 1015.6 2.0
01/02:00pm 14.2 11.2 9.4 73 2.5 ESE 15 19 8 10 1014.9 1014.9 1.8
01/01:30pm 15.3 13.2 11.1 76 2.2 SE 13 17 7 9 1015.0 1015.0 1.8
01/01:00pm 15.4 12.2 10.0 70 2.8 SSW 17 24 9 13 1015.3 1015.3 1.8
01/12:30pm 14.7 11.9 11.5 81 1.7 S 17 20 9 11 1015.6 1015.6 1.6
01/12:00pm 13.9 12.5 12.1 89 1.0 SSW 11 17 6 9 1015.7 1015.7 1.6
01/11:30am 13.1 11.6 12.0 93 0.6 S 11 15 6 8 1015.9 1015.9 1.6
01/11:20am 13.0 11.9 11.9 93 0.6 S 9 15 5 8 1015.9 1015.9 1.6
01/11:02am 12.8 11.4 12.2 96 0.3 SW 11 15 6 8 1016.0 1016.0 1.6
01/11:00am 12.9 11.5 12.3 96 0.3 SW 11 15 6 8 1015.9 1015.9 1.6
01/10:37am 12.4 8.2 11.0 91 0.7 SW 24 33 13 18 1015.9 1015.9 0.4
01/10:30am 13.7 11.8 11.9 89 1.0 W 13 17 7 9 1015.6 1015.6 0.0
01/10:00am 13.4 12.0 12.3 93 0.6 WNW 11 13 6 7 1015.6 1015.6 0.0
01/09:30am 13.1 12.1 12.2 94 0.5 NNW 9 13 5 7 1015.3 1015.3 0.0
01/09:00am 12.7 11.3 12.1 96 0.3 NNW 11 13 6 7 1015.3 1015.3 8.2
01/08:30am 12.5 12.0 12.0 97 0.3 NW 6 7 3 4 1014.7 1014.7 8.2
01/08:00am 12.4 11.3 11.9 97 0.3 WSW 9 11 5 6 1014.6 1014.6 8.2
01/07:30am 12.3 10.7 11.7 96 0.3 NNE 11 15 6 8 1013.0 1013.0 8.2
01/07:00am 12.3 11.7 11.7 96 0.3 WNW 6 9 3 5 1014.1 1014.1 8.0
01/06:42am 12.3 10.4 11.8 97 0.3 S 13 15 7 8 1013.6 1013.6 8.0
01/06:30am 12.4 12.2 11.8 96 0.3 SSW 4 9 2 5 1013.3 1013.3 7.6
01/06:12am 12.5 11.4 11.9 96 0.3 NW 9 11 5 6 1014.8 1014.8 6.4
01/06:00am 12.6 11.1 12.0 96 0.3 W 11 15 6 8 1015.2 1015.2 5.8
01/05:36am 12.5 9.8 11.7 95 0.4 SSW 17 24 9 13 1013.4 1013.4 5.6
01/05:30am 12.5 9.8 11.7 95 0.4 SW 17 22 9 12 1013.4 1013.4 5.4
01/05:00am 12.7 10.4 11.6 93 0.6 SSW 15 20 8 11 1012.7 1012.7 5.2
01/04:58am 12.7 10.0 11.6 93 0.6 SSW 17 22 9 12 1012.7 1012.7 5.2
01/04:30am 13.0 11.2 12.2 95 0.4 S 13 20 7 11 1012.1 1012.1 5.2
01/04:00am 13.2 11.9 12.6 96 0.3 SSW 11 13 6 7 1012.6 1012.6 5.0
01/03:58am 13.1 12.2 12.5 96 0.3 SSW 9 13 5 7 1012.5 1012.5 5.0
01/03:43am 13.1 11.0 12.5 96 0.3 S 15 20 8 11 1012.1 1012.1 5.0
01/03:42am 13.1 11.0 12.5 96 0.3 S 15 20 8 11 1012.0 1012.0 5.0
01/03:30am 13.1 11.4 12.5 96 0.3 SSE 13 17 7 9 1011.8 1011.8 5.0
01/03:01am 13.2 12.0 12.7 97 0.3 SSE 11 17 6 9 1012.3 1012.3 4.4
01/03:00am 13.2 11.9 12.6 96 0.3 SSE 11 17 6 9 1012.3 1012.3 4.4
01/02:31am 13.7 12.2 13.1 96 0.3 S 13 19 7 10 1013.1 1013.1 2.6
01/02:30am 13.8 12.3 13.0 95 0.4 S 13 15 7 8 1013.3 1013.3 2.6
01/02:23am 13.9 12.8 13.0 94 0.5 S 11 15 6 8 1013.3 1013.3 1.8
01/02:00am 13.9 13.0 12.6 92 0.7 SSE 9 13 5 7 1012.9 1012.9 0.4
01/01:30am 14.3 13.4 12.5 89 1.0 ESE 9 17 5 9 1012.4 1012.4 0.0
01/01:00am 14.5 13.3 12.9 90 0.9 SSE 11 17 6 9 1012.8 1012.8 0.0
01/12:30am 14.7 13.4 12.6 87 1.1 SSE 11 17 6 9 1012.5 1012.5 0.0
01/12:00am 14.7 13.0 12.4 86 1.3 S 13 19 7 10 1013.0 1013.0 0.0
 
Date/Time
CST
Temp
°C
App
Temp
°C
Dew
Point
Rel
Hum
%
Delta-T
°C
Wind Press
QNH
hPa
Press
MSL
hPa
Rain
since 9 am
mm
Dir
 
Spd
km/h
Gust
km/h
Spd
kts
Gust
kts
31/11:30pm 15.1 12.6 12.4 84 1.5 SSW 17 24 9 13 1013.5 1013.5 0.0
31/11:00pm 15.0 11.8 12.0 82 1.6 S 20 26 11 14 1012.3 1012.3 0.0
31/10:30pm 15.3 12.0 10.9 75 2.3 SSW 19 24 10 13 1012.2 1012.2 0.0
31/10:00pm 15.8 10.9 10.1 69 3.0 S 26 37 14 20 1011.7 1011.7 0.0
31/09:30pm 16.8 11.8 8.2 57 4.4 S 24 37 13 20 1011.6 1011.6 0.0
31/09:00pm 17.8 13.7 6.0 46 5.8 S 17 22 9 12 1011.2 1011.2 0.0
31/08:30pm 18.3 14.5 5.8 44 6.1 S 15 20 8 11 1011.3 1011.3 0.0
31/08:00pm 21.2 15.6 -0.1 24 9.5 WSW 19 24 10 13 1010.6 1010.6 0.0
31/07:30pm 21.3 18.4 -1.3 22 9.8 N 4 7 2 4 1009.8 1009.8 0.0
31/07:00pm 22.6 18.4 -0.8 21 10.4 N 11 13 6 7 1009.6 1009.6 0.0
31/06:30pm 24.0 19.0 -1.0 19 11.2 N 15 19 8 10 1009.5 1009.5 0.0
31/06:00pm 24.9 19.5 -1.0 18 11.7 N 17 24 9 13 1009.4 1009.4 0.0
31/05:30pm 25.4 19.0 -1.4 17 12.1 N 22 28 12 15 1009.9 1009.9 0.0
31/05:00pm 25.9 18.0 -1.8 16 12.4 N 30 39 16 21 1009.4 1009.4 0.0
31/04:30pm 26.3 17.8 -1.5 16 12.6 N 33 46 18 25 1009.4 1009.4 0.0
31/04:00pm 26.9 18.5 -1.0 16 12.8 N 33 48 18 26 1009.2 1009.2 0.0
31/03:30pm 27.6 18.4 -1.3 15 13.3 NNW 37 48 20 26 1009.6 1009.6 0.0
31/03:00pm 27.2 18.7 -1.7 15 13.1 NNW 33 46 18 25 1009.9 1009.9 0.0
31/02:30pm 26.4 18.1 -1.4 16 12.6 NNW 32 44 17 24 1010.7 1010.7 0.0
31/02:00pm 26.4 18.3 -0.6 17 12.4 N 32 52 17 28 1010.9 1010.9 0.0
31/01:57pm 26.0 17.8 -0.9 17 12.3 NNW 32 52 17 28 1011.0 1011.0 0.0
31/01:30pm 26.0 17.2 -0.9 17 12.3 N 35 46 19 25 1011.3 1011.3 0.0
31/01:00pm 26.1 17.9 -0.8 17 12.3 N 32 44 17 24 1012.2 1012.2 0.0
31/12:30pm 25.6 16.5 -0.5 18 12.0 N 37 52 20 28 1012.8 1012.8 0.0
31/12:00pm 24.7 15.9 -1.2 18 11.6 N 35 50 19 27 1013.5 1013.5 0.0
31/11:30am 23.8 14.6 -1.2 19 11.1 N 37 54 20 29 1014.1 1014.1 0.0
31/11:00am 23.5 15.1 -0.7 20 10.9 N 33 44 18 24 1014.3 1014.3 0.0
31/10:50am 24.6 16.5 -0.5 19 11.4 N 32 50 17 27 1014.6 1014.6 0.0
31/10:30am 24.3 15.7 -0.1 20 11.1 N 35 46 19 25 1014.8 1014.8 0.0
31/10:00am 22.8 15.0 -0.6 21 10.5 NNW 30 43 16 23 1015.3 1015.3 0.0
31/09:30am 21.3 13.5 -0.6 23 9.6 N 30 39 16 21 1016.0 1016.0 0.0
31/09:00am 18.0 12.0 -1.3 27 8.1 N 20 26 11 14 1016.4 1016.4 0.0
31/08:30am 15.4 10.3 -1.6 31 6.9 N 15 20 8 11 1016.5 1016.5 0.0
31/08:00am 14.4 9.7 -1.6 33 6.5 NNW 13 17 7 9 1016.6 1016.6 0.0
31/07:30am 13.8 8.7 -1.8 34 6.2 N 15 20 8 11 1016.0 1016.0 0.0
31/07:00am 8.9 4.5 -2.7 44 4.3 NNW 11 15 6 8 1016.0 1016.0 0.0
31/06:30am 12.3 7.8 -3.1 34 5.9 NW 11 13 6 7 1015.6 1015.6 0.0
31/06:00am 14.8 8.7 -2.6 30 6.9 N 20 30 11 16 1015.0 1015.0 0.0
31/05:30am 10.9 5.8 -1.8 41 4.9 NNW 15 19 8 10 1014.7 1014.7 0.0
31/05:00am 9.7 4.9 -2.6 42 4.6 NW 13 15 7 8 1014.8 1014.8 0.0
31/04:30am 10.7 5.1 -2.7 39 5.1 WNW 17 19 9 10 1014.6 1014.6 0.0
31/04:22am 11.4 6.2 -2.8 37 5.4 WNW 15 17 8 9 1014.7 1014.7 0.0
31/04:00am 16.5 10.4 -2.5 27 7.7 N 20 26 11 14 1014.6 1014.6 0.0
31/03:30am 15.4 10.7 -1.6 31 7.0 N 13 19 7 10 1014.7 1014.7 0.0
31/03:00am 11.6 6.5 -2.2 38 5.3 N 15 19 8 10 1015.3 1015.3 0.0
31/02:30am 8.3 3.9 -2.6 46 4.0 NW 11 15 6 8 1015.7 1015.7 0.0
31/02:00am 9.3 3.7 -2.6 43 4.5 WNW 17 19 9 10 1016.1 1016.1 0.0
31/01:30am 9.4 4.3 -2.2 44 4.4 NW 15 17 8 9 1016.2 1016.2 0.0
31/01:14am 11.2 6.3 -3.3 36 5.5 WNW 13 17 7 9 1016.3 1016.3 0.0
31/01:00am 16.4 10.3 -2.6 27 7.7 N 20 26 11 14 1016.3 1016.3 0.0
31/12:30am 16.8 10.9 -2.3 27 7.8 N 19 24 10 13 1016.6 1016.6 0.0
31/12:00am 14.7 9.7 -1.4 33 6.6 N 15 19 8 10 1017.0 1017.0 0.0
 
Date/Time
CST
Temp
°C
App
Temp
°C
Dew
Point
Rel
Hum
%
Delta-T
°C
Wind Press
QNH
hPa
Press
MSL
hPa
Rain
since 9 am
mm
Dir
 
Spd
km/h
Gust
km/h
Spd
kts
Gust
kts
30/11:30pm 11.3 6.6 -2.1 39 5.2 NNW 13 13 7 7 1017.4 1017.4 0.0

Other Formats:

Comma delimited format used in spreadsheet applications
http://www.bom.gov.au/fwo/IDS60801/IDS60801.95664.axf

JavaScript Object Notation format (JSON) in row-major order
http://www.bom.gov.au/fwo/IDS60801/IDS60801.95664.json